sensor_id;sensor_type;location;lat;lon;timestamp;temperature;humidity
20712;DHT22;10517;50.742;4.224;2022-09-09T00:04:03;15.00;99.90
20712;DHT22;10517;50.742;4.224;2022-09-09T00:06:33;15.00;99.90
20712;DHT22;10517;50.742;4.224;2022-09-09T00:09:08;15.00;99.90
20712;DHT22;10517;50.742;4.224;2022-09-09T00:14:57;14.90;99.90
20712;DHT22;10517;50.742;4.224;2022-09-09T00:17:35;14.90;99.90
20712;DHT22;10517;50.742;4.224;2022-09-09T00:23:39;15.00;99.90
20712;DHT22;10517;50.742;4.224;2022-09-09T00:28:38;15.20;99.90
20712;DHT22;10517;50.742;4.224;2022-09-09T00:31:13;15.20;99.90
20712;DHT22;10517;50.742;4.224;2022-09-09T00:33:41;15.10;99.90
20712;DHT22;10517;50.742;4.224;2022-09-09T00:36:13;15.10;99.90
20712;DHT22;10517;50.742;4.224;2022-09-09T00:38:49;15.00;99.90
20712;DHT22;10517;50.742;4.224;2022-09-09T00:46:42;15.20;99.90
20712;DHT22;10517;50.742;4.224;2022-09-09T00:57:26;15.20;99.90
20712;DHT22;10517;50.742;4.224;2022-09-09T01:03:06;15.20;99.90
20712;DHT22;10517;50.742;4.224;2022-09-09T01:05:46;15.20;99.90
20712;DHT22;10517;50.742;4.224;2022-09-09T01:08:28;15.30;99.90
20712;DHT22;10517;50.742;4.224;2022-09-09T01:10:56;15.20;99.90
20712;DHT22;10517;50.742;4.224;2022-09-09T01:13:32;15.10;99.90
20712;DHT22;10517;50.742;4.224;2022-09-09T01:16:01;15.10;99.90
20712;DHT22;10517;50.742;4.224;2022-09-09T01:18:39;15.20;99.90
20712;DHT22;10517;50.742;4.224;2022-09-09T01:26:43;15.00;99.90
20712;DHT22;10517;50.742;4.224;2022-09-09T01:29:12;15.10;99.90
20712;DHT22;10517;50.742;4.224;2022-09-09T01:31:39;15.00;99.90
20712;DHT22;10517;50.742;4.224;2022-09-09T01:34:15;14.90;99.90
20712;DHT22;10517;50.742;4.224;2022-09-09T01:37:07;15.00;99.90
20712;DHT22;10517;50.742;4.224;2022-09-09T01:39:33;15.00;99.90
20712;DHT22;10517;50.742;4.224;2022-09-09T01:42:00;15.00;99.90
20712;DHT22;10517;50.742;4.224;2022-09-09T01:44:27;15.00;99.90
20712;DHT22;10517;50.742;4.224;2022-09-09T01:46:53;15.00;99.90
20712;DHT22;10517;50.742;4.224;2022-09-09T01:49:18;15.00;99.90
20712;DHT22;10517;50.742;4.224;2022-09-09T01:51:48;14.90;99.90
20712;DHT22;10517;50.742;4.224;2022-09-09T01:54:15;15.00;99.90
20712;DHT22;10517;50.742;4.224;2022-09-09T01:59:23;15.10;99.90
20712;DHT22;10517;50.742;4.224;2022-09-09T02:02:32;15.10;99.90
20712;DHT22;10517;50.742;4.224;2022-09-09T02:08:00;15.00;99.90
20712;DHT22;10517;50.742;4.224;2022-09-09T02:10:40;14.90;99.90
20712;DHT22;10517;50.742;4.224;2022-09-09T02:13:13;14.90;99.90
20712;DHT22;10517;50.742;4.224;2022-09-09T02:21:03;14.80;99.90
20712;DHT22;10517;50.742;4.224;2022-09-09T02:23:29;14.90;99.90
20712;DHT22;10517;50.742;4.224;2022-09-09T02:25:56;14.80;99.90
20712;DHT22;10517;50.742;4.224;2022-09-09T02:28:25;14.80;99.90
20712;DHT22;10517;50.742;4.224;2022-09-09T02:30:52;14.80;99.90
20712;DHT22;10517;50.742;4.224;2022-09-09T02:33:24;14.80;99.90
20712;DHT22;10517;50.742;4.224;2022-09-09T02:35:51;14.80;99.90
20712;DHT22;10517;50.742;4.224;2022-09-09T02:38:19;14.80;99.90
20712;DHT22;10517;50.742;4.224;2022-09-09T02:40:46;14.80;99.90
20712;DHT22;10517;50.742;4.224;2022-09-09T02:43:14;14.80;99.90
20712;DHT22;10517;50.742;4.224;2022-09-09T02:45:49;14.80;99.90
20712;DHT22;10517;50.742;4.224;2022-09-09T02:51:02;14.80;99.90
20712;DHT22;10517;50.742;4.224;2022-09-09T02:56:20;14.80;99.90
20712;DHT22;10517;50.742;4.224;2022-09-09T02:58:48;14.70;99.90
20712;DHT22;10517;50.742;4.224;2022-09-09T03:01:14;14.70;99.90
20712;DHT22;10517;50.742;4.224;2022-09-09T03:03:41;14.70;99.90
20712;DHT22;10517;50.742;4.224;2022-09-09T03:06:07;14.70;99.90
20712;DHT22;10517;50.742;4.224;2022-09-09T03:08:33;14.70;99.90
20712;DHT22;10517;50.742;4.224;2022-09-09T03:10:59;14.70;99.90
20712;DHT22;10517;50.742;4.224;2022-09-09T03:13:26;14.80;99.90
20712;DHT22;10517;50.742;4.224;2022-09-09T03:15:52;14.80;99.90
20712;DHT22;10517;50.742;4.224;2022-09-09T03:18:18;14.70;99.90
20712;DHT22;10517;50.742;4.224;2022-09-09T03:20:43;14.70;99.90
20712;DHT22;10517;50.742;4.224;2022-09-09T03:23:09;14.70;99.90
20712;DHT22;10517;50.742;4.224;2022-09-09T03:25:34;14.70;99.90
20712;DHT22;10517;50.742;4.224;2022-09-09T03:28:01;14.80;99.90
20712;DHT22;10517;50.742;4.224;2022-09-09T03:30:27;14.80;99.90
20712;DHT22;10517;50.742;4.224;2022-09-09T03:32:53;14.80;99.90
20712;DHT22;10517;50.742;4.224;2022-09-09T03:35:20;14.80;99.90
20712;DHT22;10517;50.742;4.224;2022-09-09T03:37:45;14.90;99.90
20712;DHT22;10517;50.742;4.224;2022-09-09T03:40:11;14.90;99.90
20712;DHT22;10517;50.742;4.224;2022-09-09T03:42:37;14.90;99.90
20712;DHT22;10517;50.742;4.224;2022-09-09T03:45:04;14.90;99.90
20712;DHT22;10517;50.742;4.224;2022-09-09T03:47:30;15.00;99.90
20712;DHT22;10517;50.742;4.224;2022-09-09T03:49:56;15.10;99.90
20712;DHT22;10517;50.742;4.224;2022-09-09T03:52:21;15.10;99.90
20712;DHT22;10517;50.742;4.224;2022-09-09T03:54:50;15.10;99.90
20712;DHT22;10517;50.742;4.224;2022-09-09T03:57:17;15.20;99.90
20712;DHT22;10517;50.742;4.224;2022-09-09T03:59:43;15.30;99.90
20712;DHT22;10517;50.742;4.224;2022-09-09T04:02:09;15.20;99.90
20712;DHT22;10517;50.742;4.224;2022-09-09T04:04:35;15.20;99.90
20712;DHT22;10517;50.742;4.224;2022-09-09T04:07:01;15.30;99.90
20712;DHT22;10517;50.742;4.224;2022-09-09T04:09:26;15.30;99.90
20712;DHT22;10517;50.742;4.224;2022-09-09T04:11:52;15.10;99.90
20712;DHT22;10517;50.742;4.224;2022-09-09T04:14:19;15.10;99.90
20712;DHT22;10517;50.742;4.224;2022-09-09T04:16:44;15.00;99.90
20712;DHT22;10517;50.742;4.224;2022-09-09T04:19:11;15.10;99.90
20712;DHT22;10517;50.742;4.224;2022-09-09T04:21:39;15.00;99.90
20712;DHT22;10517;50.742;4.224;2022-09-09T04:24:06;15.00;99.90
20712;DHT22;10517;50.742;4.224;2022-09-09T04:26:33;14.90;99.90
20712;DHT22;10517;50.742;4.224;2022-09-09T04:28:58;15.00;99.90
20712;DHT22;10517;50.742;4.224;2022-09-09T04:31:24;15.00;99.90
20712;DHT22;10517;50.742;4.224;2022-09-09T04:33:53;15.10;99.90
20712;DHT22;10517;50.742;4.224;2022-09-09T04:36:18;15.00;99.90
20712;DHT22;10517;50.742;4.224;2022-09-09T04:38:45;15.00;99.90
20712;DHT22;10517;50.742;4.224;2022-09-09T04:41:11;14.90;99.90
20712;DHT22;10517;50.742;4.224;2022-09-09T04:43:38;14.90;99.90
20712;DHT22;10517;50.742;4.224;2022-09-09T04:46:05;15.00;99.90
20712;DHT22;10517;50.742;4.224;2022-09-09T04:48:31;15.00;99.90
20712;DHT22;10517;50.742;4.224;2022-09-09T04:50:57;15.00;99.90
20712;DHT22;10517;50.742;4.224;2022-09-09T04:53:23;15.10;99.90
20712;DHT22;10517;50.742;4.224;2022-09-09T04:55:49;15.10;99.90
20712;DHT22;10517;50.742;4.224;2022-09-09T04:58:15;15.10;99.90
20712;DHT22;10517;50.742;4.224;2022-09-09T05:00:40;15.20;99.90
20712;DHT22;10517;50.742;4.224;2022-09-09T05:03:07;15.20;99.90
20712;DHT22;10517;50.742;4.224;2022-09-09T05:05:34;15.20;99.90
20712;DHT22;10517;50.742;4.224;2022-09-09T05:08:07;15.20;99.90
20712;DHT22;10517;50.742;4.224;2022-09-09T05:10:35;15.30;99.90
20712;DHT22;10517;50.742;4.224;2022-09-09T05:13:01;15.30;99.90
20712;DHT22;10517;50.742;4.224;2022-09-09T05:15:27;15.20;99.90
20712;DHT22;10517;50.742;4.224;2022-09-09T05:17:57;15.20;99.90
20712;DHT22;10517;50.742;4.224;2022-09-09T05:20:24;15.20;99.90
20712;DHT22;10517;50.742;4.224;2022-09-09T05:22:55;15.30;99.90
20712;DHT22;10517;50.742;4.224;2022-09-09T05:25:22;15.20;99.90
20712;DHT22;10517;50.742;4.224;2022-09-09T05:27:49;15.20;99.90
20712;DHT22;10517;50.742;4.224;2022-09-09T05:30:15;15.20;99.90
20712;DHT22;10517;50.742;4.224;2022-09-09T05:32:41;15.20;99.90
20712;DHT22;10517;50.742;4.224;2022-09-09T05:35:07;15.30;99.90
20712;DHT22;10517;50.742;4.224;2022-09-09T05:37:32;15.40;99.90
20712;DHT22;10517;50.742;4.224;2022-09-09T05:39:58;15.50;99.90
20712;DHT22;10517;50.742;4.224;2022-09-09T05:42:24;15.40;99.90
20712;DHT22;10517;50.742;4.224;2022-09-09T05:44:49;15.40;99.90
20712;DHT22;10517;50.742;4.224;2022-09-09T05:47:16;15.40;99.90
20712;DHT22;10517;50.742;4.224;2022-09-09T05:49:42;15.30;99.90
20712;DHT22;10517;50.742;4.224;2022-09-09T05:52:08;15.40;99.90
20712;DHT22;10517;50.742;4.224;2022-09-09T05:54:35;15.40;99.90
20712;DHT22;10517;50.742;4.224;2022-09-09T05:57:00;15.50;99.90
20712;DHT22;10517;50.742;4.224;2022-09-09T05:59:26;15.60;99.90
20712;DHT22;10517;50.742;4.224;2022-09-09T06:01:51;15.70;99.90
20712;DHT22;10517;50.742;4.224;2022-09-09T06:04:17;15.80;99.90
20712;DHT22;10517;50.742;4.224;2022-09-09T06:06:43;15.80;99.90
20712;DHT22;10517;50.742;4.224;2022-09-09T06:09:09;15.80;99.90
20712;DHT22;10517;50.742;4.224;2022-09-09T06:11:37;15.80;99.90
20712;DHT22;10517;50.742;4.224;2022-09-09T06:14:04;15.80;99.90
20712;DHT22;10517;50.742;4.224;2022-09-09T06:16:30;15.90;99.90
20712;DHT22;10517;50.742;4.224;2022-09-09T06:18:58;16.00;99.90
20712;DHT22;10517;50.742;4.224;2022-09-09T06:21:29;16.00;99.90
20712;DHT22;10517;50.742;4.224;2022-09-09T06:23:55;16.10;99.90
20712;DHT22;10517;50.742;4.224;2022-09-09T06:26:23;16.00;99.90
20712;DHT22;10517;50.742;4.224;2022-09-09T06:28:51;16.10;99.90
20712;DHT22;10517;50.742;4.224;2022-09-09T06:31:19;16.00;99.90
20712;DHT22;10517;50.742;4.224;2022-09-09T06:33:49;15.80;99.90
20712;DHT22;10517;50.742;4.224;2022-09-09T06:38:43;15.90;99.90
20712;DHT22;10517;50.742;4.224;2022-09-09T06:41:10;16.00;99.90
20712;DHT22;10517;50.742;4.224;2022-09-09T06:43:37;16.10;99.90
20712;DHT22;10517;50.742;4.224;2022-09-09T06:46:25;16.20;99.90
20712;DHT22;10517;50.742;4.224;2022-09-09T06:48:55;16.30;99.90
20712;DHT22;10517;50.742;4.224;2022-09-09T06:51:23;16.20;99.90
20712;DHT22;10517;50.742;4.224;2022-09-09T06:53:52;16.30;99.90
20712;DHT22;10517;50.742;4.224;2022-09-09T06:56:29;16.40;99.90
20712;DHT22;10517;50.742;4.224;2022-09-09T06:58:57;16.50;99.90
20712;DHT22;10517;50.742;4.224;2022-09-09T07:01:31;16.70;99.90
20712;DHT22;10517;50.742;4.224;2022-09-09T07:03:58;16.60;99.90
20712;DHT22;10517;50.742;4.224;2022-09-09T07:06:32;16.80;99.90
20712;DHT22;10517;50.742;4.224;2022-09-09T07:09:04;16.90;99.90
20712;DHT22;10517;50.742;4.224;2022-09-09T07:11:33;16.90;99.90
20712;DHT22;10517;50.742;4.224;2022-09-09T07:13:59;16.90;99.90
20712;DHT22;10517;50.742;4.224;2022-09-09T07:16:25;16.90;99.90
20712;DHT22;10517;50.742;4.224;2022-09-09T07:18:53;16.90;99.90
20712;DHT22;10517;50.742;4.224;2022-09-09T07:21:20;16.90;99.90
20712;DHT22;10517;50.742;4.224;2022-09-09T07:23:47;16.80;99.90
20712;DHT22;10517;50.742;4.224;2022-09-09T07:26:18;16.70;99.90
20712;DHT22;10517;50.742;4.224;2022-09-09T07:28:48;16.60;99.90
20712;DHT22;10517;50.742;4.224;2022-09-09T07:31:19;16.60;99.90
20712;DHT22;10517;50.742;4.224;2022-09-09T07:33:46;16.50;99.90
20712;DHT22;10517;50.742;4.224;2022-09-09T07:36:21;16.50;99.90
20712;DHT22;10517;50.742;4.224;2022-09-09T07:38:53;16.60;99.90
20712;DHT22;10517;50.742;4.224;2022-09-09T07:41:22;16.70;99.90
20712;DHT22;10517;50.742;4.224;2022-09-09T07:43:49;16.60;99.90
20712;DHT22;10517;50.742;4.224;2022-09-09T07:46:16;16.60;99.90
20712;DHT22;10517;50.742;4.224;2022-09-09T07:48:49;16.60;99.90
20712;DHT22;10517;50.742;4.224;2022-09-09T07:51:18;16.70;99.90
20712;DHT22;10517;50.742;4.224;2022-09-09T07:53:45;16.90;99.90
20712;DHT22;10517;50.742;4.224;2022-09-09T07:56:14;17.10;99.90
20712;DHT22;10517;50.742;4.224;2022-09-09T07:58:40;17.20;99.90
20712;DHT22;10517;50.742;4.224;2022-09-09T08:01:18;17.40;99.90
20712;DHT22;10517;50.742;4.224;2022-09-09T08:03:46;17.40;99.90
20712;DHT22;10517;50.742;4.224;2022-09-09T08:06:13;17.60;99.90
20712;DHT22;10517;50.742;4.224;2022-09-09T08:08:39;17.90;99.90
20712;DHT22;10517;50.742;4.224;2022-09-09T08:11:12;18.10;99.90
20712;DHT22;10517;50.742;4.224;2022-09-09T08:13:40;18.30;99.90
20712;DHT22;10517;50.742;4.224;2022-09-09T08:16:14;18.30;99.90
20712;DHT22;10517;50.742;4.224;2022-09-09T08:18:40;18.30;99.90
20712;DHT22;10517;50.742;4.224;2022-09-09T08:21:11;18.40;99.90
20712;DHT22;10517;50.742;4.224;2022-09-09T08:23:40;18.30;99.90
20712;DHT22;10517;50.742;4.224;2022-09-09T08:26:12;18.20;99.90
20712;DHT22;10517;50.742;4.224;2022-09-09T08:28:39;18.40;99.90
20712;DHT22;10517;50.742;4.224;2022-09-09T08:31:14;18.60;99.90
20712;DHT22;10517;50.742;4.224;2022-09-09T08:33:41;18.50;99.90
20712;DHT22;10517;50.742;4.224;2022-09-09T08:36:10;18.50;99.90
20712;DHT22;10517;50.742;4.224;2022-09-09T08:38:36;18.40;99.90
20712;DHT22;10517;50.742;4.224;2022-09-09T08:41:12;18.30;99.90
20712;DHT22;10517;50.742;4.224;2022-09-09T08:43:40;18.30;99.90
20712;DHT22;10517;50.742;4.224;2022-09-09T08:46:17;18.10;99.90
20712;DHT22;10517;50.742;4.224;2022-09-09T08:48:56;18.10;99.90
20712;DHT22;10517;50.742;4.224;2022-09-09T08:51:27;18.10;99.90
20712;DHT22;10517;50.742;4.224;2022-09-09T08:53:54;17.90;99.90
20712;DHT22;10517;50.742;4.224;2022-09-09T08:56:24;17.80;99.90
20712;DHT22;10517;50.742;4.224;2022-09-09T08:58:52;17.70;99.90
20712;DHT22;10517;50.742;4.224;2022-09-09T09:01:30;17.60;99.90
20712;DHT22;10517;50.742;4.224;2022-09-09T09:12:53;17.30;99.90
20712;DHT22;10517;50.742;4.224;2022-09-09T09:15:23;17.20;99.90
20712;DHT22;10517;50.742;4.224;2022-09-09T09:17:49;17.10;99.90
20712;DHT22;10517;50.742;4.224;2022-09-09T09:20:16;17.10;99.90
20712;DHT22;10517;50.742;4.224;2022-09-09T09:22:50;17.00;99.90
20712;DHT22;10517;50.742;4.224;2022-09-09T09:28:10;17.00;99.90
20712;DHT22;10517;50.742;4.224;2022-09-09T09:36:07;17.00;99.90
20712;DHT22;10517;50.742;4.224;2022-09-09T09:38:35;17.00;99.90
20712;DHT22;10517;50.742;4.224;2022-09-09T09:41:01;17.10;99.90
20712;DHT22;10517;50.742;4.224;2022-09-09T09:43:36;17.20;99.90
20712;DHT22;10517;50.742;4.224;2022-09-09T09:46:05;17.10;99.90
20712;DHT22;10517;50.742;4.224;2022-09-09T09:48:31;17.10;99.90
20712;DHT22;10517;50.742;4.224;2022-09-09T09:51:09;17.30;99.90
20712;DHT22;10517;50.742;4.224;2022-09-09T09:53:36;17.40;99.90
20712;DHT22;10517;50.742;4.224;2022-09-09T09:56:08;17.40;99.90
20712;DHT22;10517;50.742;4.224;2022-09-09T09:58:50;17.40;99.90
20712;DHT22;10517;50.742;4.224;2022-09-09T10:01:34;17.50;99.90
20712;DHT22;10517;50.742;4.224;2022-09-09T10:04:23;17.50;99.90
20712;DHT22;10517;50.742;4.224;2022-09-09T10:06:49;17.30;99.90
20712;DHT22;10517;50.742;4.224;2022-09-09T10:09:30;17.30;99.90
20712;DHT22;10517;50.742;4.224;2022-09-09T10:29:04;18.30;99.90
20712;DHT22;10517;50.742;4.224;2022-09-09T10:34:40;18.10;99.90
20712;DHT22;10517;50.742;4.224;2022-09-09T10:37:23;18.40;99.90
20712;DHT22;10517;50.742;4.224;2022-09-09T10:40:02;18.60;99.90
20712;DHT22;10517;50.742;4.224;2022-09-09T10:42:31;18.70;99.90
20712;DHT22;10517;50.742;4.224;2022-09-09T10:56:16;19.00;99.90
20712;DHT22;10517;50.742;4.224;2022-09-09T10:58:50;19.10;99.90
20712;DHT22;10517;50.742;4.224;2022-09-09T11:01:37;19.20;99.90
20712;DHT22;10517;50.742;4.224;2022-09-09T11:04:55;19.30;99.90
20712;DHT22;10517;50.742;4.224;2022-09-09T11:07:21;19.40;99.90
20712;DHT22;10517;50.742;4.224;2022-09-09T11:09:54;19.70;99.90
20712;DHT22;10517;50.742;4.224;2022-09-09T11:12:23;19.70;99.90
20712;DHT22;10517;50.742;4.224;2022-09-09T11:14:56;19.90;99.90
20712;DHT22;10517;50.742;4.224;2022-09-09T11:17:26;19.90;99.90
20712;DHT22;10517;50.742;4.224;2022-09-09T11:19:53;20.10;99.90
20712;DHT22;10517;50.742;4.224;2022-09-09T11:25:35;20.20;99.90
20712;DHT22;10517;50.742;4.224;2022-09-09T11:28:43;20.00;99.90
20712;DHT22;10517;50.742;4.224;2022-09-09T11:37:14;20.20;99.90
20712;DHT22;10517;50.742;4.224;2022-09-09T11:39:51;20.10;99.90
20712;DHT22;10517;50.742;4.224;2022-09-09T11:42:24;19.90;99.90
20712;DHT22;10517;50.742;4.224;2022-09-09T11:44:50;19.90;99.90
20712;DHT22;10517;50.742;4.224;2022-09-09T11:47:30;19.90;99.90
20712;DHT22;10517;50.742;4.224;2022-09-09T11:52:45;19.80;99.90
20712;DHT22;10517;50.742;4.224;2022-09-09T11:55:35;19.90;99.90
20712;DHT22;10517;50.742;4.224;2022-09-09T11:58:04;19.80;99.90
20712;DHT22;10517;50.742;4.224;2022-09-09T12:00:42;19.80;99.90
20712;DHT22;10517;50.742;4.224;2022-09-09T12:03:35;19.80;99.90
20712;DHT22;10517;50.742;4.224;2022-09-09T12:06:18;19.70;99.90
20712;DHT22;10517;50.742;4.224;2022-09-09T12:08:49;19.60;99.90
20712;DHT22;10517;50.742;4.224;2022-09-09T12:11:27;19.60;99.90
20712;DHT22;10517;50.742;4.224;2022-09-09T12:13:58;19.50;99.90
20712;DHT22;10517;50.742;4.224;2022-09-09T12:16:37;19.90;99.90
20712;DHT22;10517;50.742;4.224;2022-09-09T12:19:18;20.30;99.90
20712;DHT22;10517;50.742;4.224;2022-09-09T12:21:56;20.40;99.90
20712;DHT22;10517;50.742;4.224;2022-09-09T12:24:37;20.80;99.90
20712;DHT22;10517;50.742;4.224;2022-09-09T12:30:07;21.70;99.90
20712;DHT22;10517;50.742;4.224;2022-09-09T12:32:34;22.20;99.90
20712;DHT22;10517;50.742;4.224;2022-09-09T12:35:02;22.10;99.90
20712;DHT22;10517;50.742;4.224;2022-09-09T12:37:49;22.10;99.90
20712;DHT22;10517;50.742;4.224;2022-09-09T12:40:20;22.10;99.90
20712;DHT22;10517;50.742;4.224;2022-09-09T12:42:46;22.30;99.90
20712;DHT22;10517;50.742;4.224;2022-09-09T12:45:32;21.80;99.90
20712;DHT22;10517;50.742;4.224;2022-09-09T12:48:06;21.50;99.90
20712;DHT22;10517;50.742;4.224;2022-09-09T12:50:37;21.30;99.90
20712;DHT22;10517;50.742;4.224;2022-09-09T12:53:35;21.10;99.90
20712;DHT22;10517;50.742;4.224;2022-09-09T12:56:04;21.00;99.90
20712;DHT22;10517;50.742;4.224;2022-09-09T12:58:32;21.20;99.90
20712;DHT22;10517;50.742;4.224;2022-09-09T13:00:59;21.60;99.90
20712;DHT22;10517;50.742;4.224;2022-09-09T13:03:26;22.10;99.90
20712;DHT22;10517;50.742;4.224;2022-09-09T13:05:53;22.30;99.90
20712;DHT22;10517;50.742;4.224;2022-09-09T13:08:20;22.50;99.90
20712;DHT22;10517;50.742;4.224;2022-09-09T13:13:34;23.80;99.90
20712;DHT22;10517;50.742;4.224;2022-09-09T13:16:02;24.30;99.90
20712;DHT22;10517;50.742;4.224;2022-09-09T13:18:32;24.30;99.90
20712;DHT22;10517;50.742;4.224;2022-09-09T13:20:58;24.40;99.90
20712;DHT22;10517;50.742;4.224;2022-09-09T13:23:30;25.00;99.90
20712;DHT22;10517;50.742;4.224;2022-09-09T13:26:02;25.40;99.90
20712;DHT22;10517;50.742;4.224;2022-09-09T13:28:30;25.50;99.90
20712;DHT22;10517;50.742;4.224;2022-09-09T13:31:03;25.80;99.90
20712;DHT22;10517;50.742;4.224;2022-09-09T13:36:05;26.40;99.90
20712;DHT22;10517;50.742;4.224;2022-09-09T13:38:53;27.60;99.90
20712;DHT22;10517;50.742;4.224;2022-09-09T13:41:24;27.10;99.90
20712;DHT22;10517;50.742;4.224;2022-09-09T13:43:51;26.20;99.90
20712;DHT22;10517;50.742;4.224;2022-09-09T13:46:33;26.30;99.90
20712;DHT22;10517;50.742;4.224;2022-09-09T13:49:03;26.00;99.90
20712;DHT22;10517;50.742;4.224;2022-09-09T13:51:50;25.70;99.90
20712;DHT22;10517;50.742;4.224;2022-09-09T13:54:19;26.00;99.90
20712;DHT22;10517;50.742;4.224;2022-09-09T13:56:45;26.00;99.90
20712;DHT22;10517;50.742;4.224;2022-09-09T13:59:17;26.30;99.90
20712;DHT22;10517;50.742;4.224;2022-09-09T14:01:45;26.80;99.90
20712;DHT22;10517;50.742;4.224;2022-09-09T14:04:10;26.60;99.90
20712;DHT22;10517;50.742;4.224;2022-09-09T14:06:37;26.20;99.90
20712;DHT22;10517;50.742;4.224;2022-09-09T14:09:04;25.60;99.90
20712;DHT22;10517;50.742;4.224;2022-09-09T14:11:30;25.10;99.90
20712;DHT22;10517;50.742;4.224;2022-09-09T14:13:55;24.90;99.90
20712;DHT22;10517;50.742;4.224;2022-09-09T14:16:21;24.70;99.90
20712;DHT22;10517;50.742;4.224;2022-09-09T14:18:47;24.70;99.90
20712;DHT22;10517;50.742;4.224;2022-09-09T14:21:13;24.70;99.90
20712;DHT22;10517;50.742;4.224;2022-09-09T14:23:41;24.40;99.90
20712;DHT22;10517;50.742;4.224;2022-09-09T14:26:07;25.20;99.90
20712;DHT22;10517;50.742;4.224;2022-09-09T14:28:34;25.20;99.90
20712;DHT22;10517;50.742;4.224;2022-09-09T14:31:00;24.60;99.90
20712;DHT22;10517;50.742;4.224;2022-09-09T14:33:27;24.30;99.90
20712;DHT22;10517;50.742;4.224;2022-09-09T14:36:02;24.10;99.90
20712;DHT22;10517;50.742;4.224;2022-09-09T14:38:31;23.80;99.90
20712;DHT22;10517;50.742;4.224;2022-09-09T14:40:56;25.00;99.90
20712;DHT22;10517;50.742;4.224;2022-09-09T14:43:23;25.70;99.90
20712;DHT22;10517;50.742;4.224;2022-09-09T14:45:50;26.20;99.90
20712;DHT22;10517;50.742;4.224;2022-09-09T14:48:17;26.90;99.90
20712;DHT22;10517;50.742;4.224;2022-09-09T14:50:42;26.10;99.90
20712;DHT22;10517;50.742;4.224;2022-09-09T14:53:09;25.50;99.90
20712;DHT22;10517;50.742;4.224;2022-09-09T14:55:35;24.30;99.90
20712;DHT22;10517;50.742;4.224;2022-09-09T14:58:01;23.30;99.90
20712;DHT22;10517;50.742;4.224;2022-09-09T15:00:26;23.20;99.90
20712;DHT22;10517;50.742;4.224;2022-09-09T15:02:55;23.10;99.90
20712;DHT22;10517;50.742;4.224;2022-09-09T15:05:21;23.10;99.90
20712;DHT22;10517;50.742;4.224;2022-09-09T15:07:47;23.20;99.90
20712;DHT22;10517;50.742;4.224;2022-09-09T15:10:14;23.20;99.90
20712;DHT22;10517;50.742;4.224;2022-09-09T15:12:39;23.00;99.90
20712;DHT22;10517;50.742;4.224;2022-09-09T15:15:07;22.80;99.90
20712;DHT22;10517;50.742;4.224;2022-09-09T15:17:33;22.70;99.90
20712;DHT22;10517;50.742;4.224;2022-09-09T15:19:58;22.50;99.90
20712;DHT22;10517;50.742;4.224;2022-09-09T15:22:24;22.30;99.90
20712;DHT22;10517;50.742;4.224;2022-09-09T15:24:50;21.90;99.90
20712;DHT22;10517;50.742;4.224;2022-09-09T15:27:16;21.80;99.90
20712;DHT22;10517;50.742;4.224;2022-09-09T15:29:41;21.80;99.90
20712;DHT22;10517;50.742;4.224;2022-09-09T15:32:07;21.80;99.90
20712;DHT22;10517;50.742;4.224;2022-09-09T15:34:33;22.20;99.90
20712;DHT22;10517;50.742;4.224;2022-09-09T15:36:59;22.80;99.90
20712;DHT22;10517;50.742;4.224;2022-09-09T15:39:25;23.60;99.90
20712;DHT22;10517;50.742;4.224;2022-09-09T15:41:51;24.10;99.90
20712;DHT22;10517;50.742;4.224;2022-09-09T15:44:18;25.20;99.90
20712;DHT22;10517;50.742;4.224;2022-09-09T15:46:48;26.80;99.90
20712;DHT22;10517;50.742;4.224;2022-09-09T15:49:16;28.90;99.90
20712;DHT22;10517;50.742;4.224;2022-09-09T15:51:45;30.80;99.90
20712;DHT22;10517;50.742;4.224;2022-09-09T15:54:16;31.90;99.90
20712;DHT22;10517;50.742;4.224;2022-09-09T15:56:44;33.10;99.90
20712;DHT22;10517;50.742;4.224;2022-09-09T15:59:10;32.90;99.90
20712;DHT22;10517;50.742;4.224;2022-09-09T16:01:37;31.60;99.90
20712;DHT22;10517;50.742;4.224;2022-09-09T16:04:04;29.60;99.90
20712;DHT22;10517;50.742;4.224;2022-09-09T16:06:30;28.10;99.90
20712;DHT22;10517;50.742;4.224;2022-09-09T16:08:57;27.10;99.90
20712;DHT22;10517;50.742;4.224;2022-09-09T16:11:25;26.20;99.90
20712;DHT22;10517;50.742;4.224;2022-09-09T16:13:52;25.20;99.90
20712;DHT22;10517;50.742;4.224;2022-09-09T16:16:20;24.90;99.90
20712;DHT22;10517;50.742;4.224;2022-09-09T16:18:52;24.30;99.90
20712;DHT22;10517;50.742;4.224;2022-09-09T16:23:47;22.60;99.90
20712;DHT22;10517;50.742;4.224;2022-09-09T16:26:15;21.50;99.90
20712;DHT22;10517;50.742;4.224;2022-09-09T16:28:42;21.20;99.90
20712;DHT22;10517;50.742;4.224;2022-09-09T16:31:09;21.10;99.90
20712;DHT22;10517;50.742;4.224;2022-09-09T16:33:36;21.10;99.90
20712;DHT22;10517;50.742;4.224;2022-09-09T16:36:06;21.00;99.90
20712;DHT22;10517;50.742;4.224;2022-09-09T16:38:32;20.80;99.90
20712;DHT22;10517;50.742;4.224;2022-09-09T16:40:59;20.50;99.90
20712;DHT22;10517;50.742;4.224;2022-09-09T16:43:25;20.30;99.90
20712;DHT22;10517;50.742;4.224;2022-09-09T16:45:51;20.20;99.90
20712;DHT22;10517;50.742;4.224;2022-09-09T16:48:16;20.30;99.90
20712;DHT22;10517;50.742;4.224;2022-09-09T16:50:42;20.40;99.90
20712;DHT22;10517;50.742;4.224;2022-09-09T16:53:07;20.30;99.90
20712;DHT22;10517;50.742;4.224;2022-09-09T16:55:38;20.30;99.90
20712;DHT22;10517;50.742;4.224;2022-09-09T16:58:04;20.00;99.90
20712;DHT22;10517;50.742;4.224;2022-09-09T17:00:30;19.90;99.90
20712;DHT22;10517;50.742;4.224;2022-09-09T17:02:55;19.50;99.90
20712;DHT22;10517;50.742;4.224;2022-09-09T17:05:21;19.40;99.90
20712;DHT22;10517;50.742;4.224;2022-09-09T17:07:46;19.00;99.90
20712;DHT22;10517;50.742;4.224;2022-09-09T17:10:12;18.90;99.90
20712;DHT22;10517;50.742;4.224;2022-09-09T17:12:39;18.70;99.90
20712;DHT22;10517;50.742;4.224;2022-09-09T17:15:06;18.60;99.90
20712;DHT22;10517;50.742;4.224;2022-09-09T17:17:31;18.60;99.90
20712;DHT22;10517;50.742;4.224;2022-09-09T17:19:57;18.60;99.90
20712;DHT22;10517;50.742;4.224;2022-09-09T17:22:23;18.60;99.90
20712;DHT22;10517;50.742;4.224;2022-09-09T17:24:48;18.70;99.90
20712;DHT22;10517;50.742;4.224;2022-09-09T17:27:14;18.60;99.90
20712;DHT22;10517;50.742;4.224;2022-09-09T17:29:40;18.50;99.90
20712;DHT22;10517;50.742;4.224;2022-09-09T17:32:06;18.40;99.90
20712;DHT22;10517;50.742;4.224;2022-09-09T17:34:36;18.40;99.90
20712;DHT22;10517;50.742;4.224;2022-09-09T17:37:03;18.30;99.90
20712;DHT22;10517;50.742;4.224;2022-09-09T17:39:31;18.20;99.90
20712;DHT22;10517;50.742;4.224;2022-09-09T17:41:57;18.00;99.90
20712;DHT22;10517;50.742;4.224;2022-09-09T17:44:23;17.90;99.90
20712;DHT22;10517;50.742;4.224;2022-09-09T17:46:48;17.90;99.90
20712;DHT22;10517;50.742;4.224;2022-09-09T17:49:16;17.90;99.90